createdAt,value
2018-07-28T00:00:36.918Z,27.12
2018-07-28T00:01:36.948Z,27.18
2018-07-28T00:02:36.976Z,27.18
2018-07-28T00:03:37.001Z,27.12
2018-07-28T00:04:37.028Z,27.15
2018-07-28T00:05:37.056Z,27.07
2018-07-28T00:06:37.087Z,27.10
2018-07-28T00:07:37.111Z,26.96
2018-07-28T00:08:37.142Z,26.93
2018-07-28T00:09:37.169Z,26.96
2018-07-28T00:10:37.198Z,26.99
2018-07-28T00:11:37.225Z,27.02
2018-07-28T00:12:37.253Z,26.99
2018-07-28T00:13:37.278Z,26.96
2018-07-28T00:14:37.311Z,26.96
2018-07-28T00:15:37.333Z,26.97
2018-07-28T00:16:37.362Z,26.99
2018-07-28T00:17:37.391Z,26.89
2018-07-28T00:18:37.419Z,26.92
2018-07-28T00:19:37.448Z,26.89
2018-07-28T00:20:37.470Z,26.92
2018-07-28T00:21:37.501Z,26.78
2018-07-28T00:22:37.530Z,26.73
2018-07-28T00:23:37.558Z,26.74
2018-07-28T00:24:37.581Z,26.73
2018-07-28T00:25:37.609Z,26.77
2018-07-28T00:26:37.640Z,26.73
2018-07-28T00:27:37.667Z,26.73
2018-07-28T00:28:37.694Z,26.62
2018-07-28T00:29:37.720Z,26.73
2018-07-28T00:30:37.748Z,26.71
2018-07-28T00:31:37.779Z,26.70
2018-07-28T00:32:37.801Z,26.71
2018-07-28T00:33:37.834Z,26.65
2018-07-28T00:34:37.857Z,26.60
2018-07-28T00:35:37.888Z,26.62
2018-07-28T00:36:37.912Z,26.62
2018-07-28T00:37:37.940Z,26.45
2018-07-28T00:38:37.972Z,26.51
2018-07-28T00:39:38.000Z,26.48
2018-07-28T00:40:38.022Z,26.48
2018-07-28T00:41:38.057Z,26.51
2018-07-28T00:42:38.087Z,26.47
2018-07-28T00:43:38.108Z,26.52
2018-07-28T00:44:38.133Z,26.48
2018-07-28T00:45:38.159Z,26.51
2018-07-28T00:46:38.190Z,26.45
2018-07-28T00:47:38.215Z,26.41
2018-07-28T00:48:38.244Z,26.43
2018-07-28T00:49:38.269Z,26.40
2018-07-28T00:50:38.298Z,26.37
2018-07-28T00:51:38.328Z,26.38
2018-07-28T00:52:38.351Z,26.34
2018-07-28T00:53:38.382Z,26.34
2018-07-28T00:54:38.409Z,26.25
2018-07-28T00:55:38.437Z,26.28
2018-07-28T00:56:38.463Z,26.23
2018-07-28T00:57:38.490Z,26.28
2018-07-28T00:58:38.516Z,26.22
2018-07-28T00:59:38.544Z,26.16
2018-07-28T01:00:38.572Z,26.26
2018-07-28T01:01:38.597Z,26.21
2018-07-28T01:02:38.625Z,26.06
2018-07-28T01:03:38.653Z,26.16
2018-07-28T01:04:38.682Z,26.06
2018-07-28T01:05:38.708Z,26.06
2018-07-28T01:06:38.737Z,26.06
2018-07-28T01:07:38.763Z,26.09
2018-07-28T01:08:38.799Z,26.09
2018-07-28T01:09:38.818Z,26.02
2018-07-28T01:10:38.846Z,25.99
2018-07-28T01:11:38.873Z,26.00
2018-07-28T01:12:38.899Z,25.91
2018-07-28T01:13:38.928Z,25.93
2018-07-28T01:14:38.954Z,25.90
2018-07-28T01:15:38.979Z,25.93
2018-07-28T01:16:39.009Z,25.96
2018-07-28T01:17:39.034Z,25.99
2018-07-28T01:18:39.062Z,25.99
2018-07-28T01:19:39.091Z,25.91
2018-07-28T01:20:39.116Z,25.88
2018-07-28T01:21:39.145Z,25.93
2018-07-28T01:22:39.172Z,25.99
2018-07-28T01:23:39.196Z,25.95
2018-07-28T01:24:39.222Z,25.93
2018-07-28T01:25:39.252Z,25.91
2018-07-28T01:26:39.277Z,25.87
2018-07-28T01:27:39.305Z,25.90
2018-07-28T01:28:39.334Z,25.87
2018-07-28T01:29:39.359Z,25.87
2018-07-28T01:30:39.388Z,25.93
2018-07-28T01:31:39.417Z,25.84
2018-07-28T01:32:39.441Z,25.83
2018-07-28T01:33:39.469Z,25.85
2018-07-28T01:34:39.496Z,25.84
2018-07-28T01:35:39.526Z,25.77
2018-07-28T01:36:39.548Z,25.84
2018-07-28T01:37:39.578Z,25.85
2018-07-28T01:38:39.603Z,25.77
2018-07-28T01:39:39.633Z,25.77
2018-07-28T01:40:39.656Z,25.75
2018-07-28T01:41:39.687Z,25.72
2018-07-28T01:42:39.715Z,25.72
2018-07-28T01:43:39.742Z,25.70
2018-07-28T01:44:39.766Z,25.77
2018-07-28T01:45:39.794Z,25.68
2018-07-28T01:46:39.824Z,25.72
2018-07-28T01:47:39.852Z,25.70
2018-07-28T01:48:39.875Z,25.72
2018-07-28T01:49:39.901Z,25.70
2018-07-28T01:50:39.928Z,25.72
2018-07-28T01:51:39.957Z,25.65
2018-07-28T01:52:39.985Z,25.58
2018-07-28T01:53:40.012Z,25.65
2018-07-28T01:54:40.037Z,25.51
2018-07-28T01:55:40.067Z,25.65
2018-07-28T01:56:40.090Z,25.58
2018-07-28T01:57:40.118Z,25.59
2018-07-28T01:58:40.146Z,25.50
2018-07-28T01:59:40.225Z,25.62
2018-07-28T02:00:40.200Z,25.55
2018-07-28T02:01:40.229Z,25.53
2018-07-28T02:02:40.253Z,25.51
2018-07-28T02:03:40.282Z,25.54
2018-07-28T02:04:40.309Z,25.54
2018-07-28T02:05:40.333Z,25.55
2018-07-28T02:06:40.360Z,25.60
2018-07-28T02:07:40.390Z,25.55
2018-07-28T02:08:40.416Z,25.54
2018-07-28T02:09:40.444Z,25.58
2018-07-28T02:10:40.469Z,25.53
2018-07-28T02:11:40.499Z,25.47
2018-07-28T02:12:40.525Z,25.44
2018-07-28T02:13:40.551Z,25.46
2018-07-28T02:14:40.579Z,25.43
2018-07-28T02:15:40.604Z,25.46
2018-07-28T02:16:40.629Z,25.41
2018-07-28T02:17:40.659Z,25.32
2018-07-28T02:18:40.687Z,25.28
2018-07-28T02:19:40.712Z,25.28
2018-07-28T02:20:40.737Z,25.26
2018-07-28T02:21:40.766Z,25.23
2018-07-28T02:22:40.793Z,25.29
2018-07-28T02:23:40.822Z,25.26
2018-07-28T02:24:40.846Z,25.18
2018-07-28T02:25:40.875Z,25.18
2018-07-28T02:26:40.903Z,25.22
2018-07-28T02:27:40.928Z,25.28
2018-07-28T02:28:40.955Z,25.21
2018-07-28T02:29:40.981Z,25.23
2018-07-28T02:30:41.009Z,25.16
2018-07-28T02:31:41.035Z,25.21
2018-07-28T02:32:41.061Z,25.14
2018-07-28T02:33:41.089Z,25.10
2018-07-28T02:34:41.117Z,25.11
2018-07-28T02:35:41.143Z,25.21
2018-07-28T02:36:41.168Z,25.16
2018-07-28T02:37:41.193Z,25.07
2018-07-28T02:38:41.224Z,25.16
2018-07-28T02:39:41.250Z,25.10
2018-07-28T02:40:41.277Z,25.04
2018-07-28T02:41:41.300Z,25.04
2018-07-28T02:42:41.329Z,25.01
2018-07-28T02:43:41.355Z,25.04
2018-07-28T02:44:41.381Z,25.04
2018-07-28T02:45:41.408Z,24.95
2018-07-28T02:46:41.437Z,24.96
2018-07-28T02:47:41.467Z,24.91
2018-07-28T02:48:41.493Z,24.92
2018-07-28T02:49:41.517Z,24.91
2018-07-28T02:50:41.542Z,24.84
2018-07-28T02:51:41.567Z,24.84
2018-07-28T02:52:41.600Z,24.81
2018-07-28T02:53:41.622Z,24.69
2018-07-28T02:54:41.648Z,24.77
2018-07-28T02:55:41.677Z,24.73
2018-07-28T02:56:41.699Z,24.70
2018-07-28T02:57:41.728Z,24.66
2018-07-28T02:58:41.761Z,24.73
2018-07-28T02:59:41.781Z,24.76
2018-07-28T03:00:41.806Z,24.66
2018-07-28T03:01:41.834Z,24.73
2018-07-28T03:02:41.862Z,24.73
2018-07-28T03:03:41.886Z,24.63
2018-07-28T03:04:41.914Z,24.65
2018-07-28T03:05:41.938Z,24.73
2018-07-28T03:06:41.967Z,24.69
2018-07-28T03:07:41.994Z,24.65
2018-07-28T03:08:42.021Z,24.65
2018-07-28T03:09:42.046Z,24.65
2018-07-28T03:10:42.073Z,24.68
2018-07-28T03:11:42.100Z,24.61
2018-07-28T03:12:42.126Z,24.65
2018-07-28T03:13:42.157Z,24.58
2018-07-28T03:14:42.177Z,24.60
2018-07-28T03:15:42.204Z,24.61
2018-07-28T03:16:42.232Z,24.66
2018-07-28T03:17:42.258Z,24.58
2018-07-28T03:18:42.282Z,24.66
2018-07-28T03:19:42.312Z,24.60
2018-07-28T03:20:42.335Z,24.55
2018-07-28T03:21:42.361Z,24.63
2018-07-28T03:22:42.638Z,24.53
2018-07-28T03:23:42.413Z,24.39
2018-07-28T03:24:42.443Z,24.50
2018-07-28T03:25:42.467Z,24.53
2018-07-28T03:26:42.496Z,24.45
2018-07-28T03:27:42.524Z,24.48
2018-07-28T03:28:42.547Z,24.39
2018-07-28T03:29:43.124Z,24.54
2018-07-28T03:30:42.601Z,24.50
2018-07-28T03:31:42.628Z,24.50
2018-07-28T03:32:42.650Z,24.42
2018-07-28T03:33:42.679Z,24.42
2018-07-28T03:34:42.706Z,24.39
2018-07-28T03:35:42.731Z,24.35
2018-07-28T03:36:42.757Z,24.35
2018-07-28T03:37:42.786Z,24.39
2018-07-28T03:38:42.811Z,24.36
2018-07-28T03:39:42.839Z,24.28
2018-07-28T03:40:42.862Z,24.30
2018-07-28T03:41:42.888Z,24.30
2018-07-28T03:42:42.918Z,24.28
2018-07-28T03:43:42.942Z,24.28
2018-07-28T03:44:42.968Z,24.17
2018-07-28T03:45:42.996Z,24.18
2018-07-28T03:46:43.025Z,24.23
2018-07-28T03:47:43.050Z,24.20
2018-07-28T03:48:43.073Z,24.20
2018-07-28T03:49:43.104Z,24.26
2018-07-28T03:50:43.128Z,24.14
2018-07-28T03:51:43.154Z,24.17
2018-07-28T03:52:43.177Z,24.17
2018-07-28T03:53:43.205Z,24.20
2018-07-28T03:54:43.233Z,24.18
2018-07-28T03:55:43.256Z,24.21
2018-07-28T03:56:43.282Z,24.13
2018-07-28T03:57:43.312Z,24.32
2018-07-28T03:58:43.337Z,24.32
2018-07-28T03:59:43.363Z,24.28
2018-07-28T04:00:43.388Z,24.29
2018-07-28T04:01:43.415Z,24.21
2018-07-28T04:02:43.441Z,24.13
2018-07-28T04:03:43.467Z,24.14
2018-07-28T04:04:43.499Z,24.03
2018-07-28T04:05:43.522Z,24.03
2018-07-28T04:06:43.544Z,23.98
2018-07-28T04:07:43.572Z,23.88
2018-07-28T04:08:43.597Z,23.87
2018-07-28T04:09:43.622Z,23.87
2018-07-28T04:10:43.653Z,23.87
2018-07-28T04:11:43.675Z,23.92
2018-07-28T04:12:43.701Z,23.86
2018-07-28T04:13:43.730Z,23.91
2018-07-28T04:14:43.756Z,23.84
2018-07-28T04:15:43.783Z,23.71
2018-07-28T04:16:43.807Z,23.78
2018-07-28T04:17:43.831Z,23.74
2018-07-28T04:18:43.861Z,23.78
2018-07-28T04:19:43.884Z,23.73
2018-07-28T04:20:43.912Z,23.83
2018-07-28T04:21:43.937Z,23.78
2018-07-28T04:22:43.963Z,23.80
2018-07-28T04:23:43.987Z,23.81
2018-07-28T04:24:44.013Z,23.80
2018-07-28T04:25:44.043Z,23.96
2018-07-28T04:26:44.067Z,23.98
2018-07-28T04:27:44.093Z,24.05
2018-07-28T04:28:44.121Z,24.10
2018-07-28T04:29:44.145Z,24.11
2018-07-28T04:30:44.170Z,24.10
2018-07-28T04:31:44.198Z,24.01
2018-07-28T04:32:44.225Z,24.01
2018-07-28T04:33:44.250Z,24.03
2018-07-28T04:34:44.273Z,24.06
2018-07-28T04:35:44.300Z,24.14
2018-07-28T04:36:44.325Z,24.13
2018-07-28T04:37:44.351Z,24.14
2018-07-28T04:38:44.380Z,24.10
2018-07-28T04:39:44.403Z,24.03
2018-07-28T04:40:44.429Z,24.10
2018-07-28T04:41:44.456Z,24.10
2018-07-28T04:42:44.483Z,24.10
2018-07-28T04:43:44.512Z,24.06
2018-07-28T04:44:44.536Z,23.98
2018-07-28T04:45:44.559Z,24.21
2018-07-28T04:46:44.586Z,24.26
2018-07-28T04:47:44.612Z,24.18
2018-07-28T04:48:44.639Z,24.14
2018-07-28T04:49:44.664Z,24.11
2018-07-28T04:50:44.693Z,24.10
2018-07-28T04:51:44.723Z,24.24
2018-07-28T04:52:44.742Z,24.17
2018-07-28T04:53:44.768Z,24.21
2018-07-28T04:54:44.797Z,24.26
2018-07-28T04:55:44.820Z,24.17
2018-07-28T04:56:44.849Z,24.20
2018-07-28T04:57:44.872Z,24.13
2018-07-28T04:58:44.899Z,24.26
2018-07-28T04:59:44.927Z,24.30
2018-07-28T05:00:44.951Z,24.36
2018-07-28T05:01:44.977Z,24.33
2018-07-28T05:02:45.003Z,24.23
2018-07-28T05:03:45.031Z,24.28
2018-07-28T05:04:45.055Z,24.35
2018-07-28T05:05:45.085Z,24.29
2018-07-28T05:06:45.108Z,24.32
2018-07-28T05:07:45.171Z,24.32
2018-07-28T05:08:45.162Z,24.36
2018-07-28T05:09:45.186Z,24.28
2018-07-28T05:10:45.218Z,24.26
2018-07-28T05:11:45.239Z,24.26
2018-07-28T05:12:45.271Z,24.24
2018-07-28T05:13:45.293Z,24.33
2018-07-28T05:14:45.316Z,24.36
2018-07-28T05:15:45.343Z,24.39
2018-07-28T05:16:45.471Z,24.36
2018-07-28T05:17:45.397Z,24.30
2018-07-28T05:18:45.422Z,24.17
2018-07-28T05:19:45.449Z,24.18
2018-07-28T05:20:45.473Z,24.16
2018-07-28T05:21:45.503Z,24.14
2018-07-28T05:22:45.526Z,24.23
2018-07-28T05:23:45.571Z,24.16
2018-07-28T05:24:45.580Z,24.16
2018-07-28T05:25:45.608Z,24.20
2018-07-28T05:26:45.632Z,24.21
2018-07-28T05:27:45.657Z,24.18
2018-07-28T05:28:45.682Z,24.02
2018-07-28T05:29:45.807Z,23.88
2018-07-28T05:30:45.735Z,23.74
2018-07-28T05:31:45.766Z,23.68
2018-07-28T05:32:45.791Z,23.63
2018-07-28T05:33:45.814Z,23.73
2018-07-28T05:34:45.838Z,23.71
2018-07-28T05:35:45.868Z,23.66
2018-07-28T05:36:45.893Z,23.63
2018-07-28T05:37:45.917Z,23.61
2018-07-28T05:38:45.945Z,23.59
2018-07-28T05:39:45.974Z,23.63
2018-07-28T05:40:45.997Z,23.69
2018-07-28T05:41:46.024Z,23.68
2018-07-28T05:42:46.051Z,23.74
2018-07-28T05:43:46.076Z,23.77
2018-07-28T05:44:46.101Z,23.76
2018-07-28T05:45:46.125Z,23.73
2018-07-28T05:46:46.154Z,23.81
2018-07-28T05:47:46.179Z,23.71
2018-07-28T05:48:46.203Z,23.66
2018-07-28T05:49:46.232Z,23.69
2018-07-28T05:50:46.261Z,23.80
2018-07-28T05:51:46.282Z,23.86
2018-07-28T05:52:46.312Z,23.99
2018-07-28T05:53:46.333Z,23.86
2018-07-28T05:54:46.359Z,23.93
2018-07-28T05:55:46.388Z,24.05
2018-07-28T05:56:46.414Z,24.13
2018-07-28T05:57:46.437Z,24.18
2018-07-28T05:58:46.468Z,24.30
2018-07-28T05:59:46.491Z,24.38
2018-07-28T06:00:46.516Z,24.50
2018-07-28T06:01:46.545Z,24.61
2018-07-28T06:02:46.625Z,24.51
2018-07-28T06:03:46.596Z,24.32
2018-07-28T06:04:46.622Z,24.35
2018-07-28T06:05:46.651Z,24.39
2018-07-28T06:06:46.675Z,24.42
2018-07-28T06:07:46.702Z,24.36
2018-07-28T06:08:46.730Z,24.33
2018-07-28T06:09:46.758Z,24.39
2018-07-28T06:10:46.837Z,24.33
2018-07-28T06:11:46.812Z,24.33
2018-07-28T06:12:46.838Z,24.33
2018-07-28T06:13:46.865Z,24.40
2018-07-28T06:14:46.894Z,24.36
2018-07-28T06:15:46.918Z,24.50
2018-07-28T06:16:46.944Z,24.53
2018-07-28T06:17:46.969Z,24.55
2018-07-28T06:18:46.996Z,24.55
2018-07-28T06:19:47.028Z,24.74
2018-07-28T06:20:47.051Z,24.80
2018-07-28T06:21:47.079Z,24.86
2018-07-28T06:22:47.103Z,24.89
2018-07-28T06:23:47.132Z,24.76
2018-07-28T06:24:47.158Z,24.84
2018-07-28T06:25:47.191Z,24.92
2018-07-28T06:26:47.213Z,24.96
2018-07-28T06:27:47.238Z,25.17
2018-07-28T06:28:47.268Z,25.28
2018-07-28T06:29:47.294Z,25.28
2018-07-28T06:30:47.320Z,25.25
2018-07-28T06:31:47.429Z,25.14
2018-07-28T06:32:47.375Z,25.14
2018-07-28T06:33:47.404Z,25.11
2018-07-28T06:34:47.432Z,25.22
2018-07-28T06:35:47.458Z,25.17
2018-07-28T06:36:47.488Z,25.14
2018-07-28T06:37:47.510Z,25.18
2018-07-28T06:38:47.544Z,25.23
2018-07-28T06:39:47.567Z,25.16
2018-07-28T06:40:47.592Z,25.21
2018-07-28T06:41:47.622Z,25.26
2018-07-28T06:42:47.649Z,25.28
2018-07-28T06:43:47.677Z,25.40
2018-07-28T06:44:47.706Z,25.46
2018-07-28T06:45:47.728Z,25.62
2018-07-28T06:46:47.757Z,25.60
2018-07-28T06:47:47.783Z,25.70
2018-07-28T06:48:47.811Z,25.69
2018-07-28T06:49:47.841Z,25.72
2018-07-28T06:50:47.871Z,25.68
2018-07-28T06:51:47.894Z,25.72
2018-07-28T06:52:47.918Z,25.72
2018-07-28T06:53:48.065Z,25.90
2018-07-28T06:54:47.977Z,25.84
2018-07-28T06:55:48.004Z,25.96
2018-07-28T06:56:48.031Z,25.93
2018-07-28T06:57:48.056Z,26.06
2018-07-28T06:58:48.084Z,26.10
2018-07-28T06:59:48.112Z,26.05
2018-07-28T07:00:48.139Z,26.10
2018-07-28T07:01:48.167Z,26.19
2018-07-28T07:02:48.194Z,26.06
2018-07-28T07:03:48.222Z,26.21
2018-07-28T07:04:48.293Z,26.13
2018-07-28T07:05:48.276Z,26.29
2018-07-28T07:06:48.307Z,26.36
2018-07-28T07:07:48.331Z,26.33
2018-07-28T07:08:48.356Z,26.43
2018-07-28T07:09:48.386Z,26.44
2018-07-28T07:10:48.411Z,26.53
2018-07-28T07:11:48.439Z,26.52
2018-07-28T07:12:48.467Z,26.59
2018-07-28T07:13:48.493Z,26.66
2018-07-28T07:14:48.523Z,26.66
2018-07-28T07:15:48.549Z,26.73
2018-07-28T07:16:48.576Z,26.74
2018-07-28T07:17:48.605Z,26.93
2018-07-28T07:18:48.631Z,27.18
2018-07-28T07:19:48.662Z,27.17
2018-07-28T07:20:48.688Z,27.20
2018-07-28T07:21:48.719Z,27.20
2018-07-28T07:22:48.745Z,27.12
2018-07-28T07:23:48.770Z,27.17
2018-07-28T07:24:48.817Z,27.30
2018-07-28T07:25:48.828Z,27.49
2018-07-28T07:26:48.856Z,27.58
2018-07-28T07:27:48.881Z,27.60
2018-07-28T07:28:48.909Z,27.51
2018-07-28T07:29:48.939Z,27.48
2018-07-28T07:30:48.966Z,27.45
2018-07-28T07:31:48.994Z,27.45
2018-07-28T07:32:49.026Z,27.36
2018-07-28T07:33:49.053Z,27.30
2018-07-28T07:34:49.082Z,27.37
2018-07-28T07:35:49.109Z,27.45
2018-07-28T07:36:49.135Z,27.64
2018-07-28T07:37:49.163Z,27.64
2018-07-28T07:38:49.192Z,27.73
2018-07-28T07:39:49.223Z,27.70
2018-07-28T07:40:49.252Z,27.54
2018-07-28T07:41:49.380Z,27.44
2018-07-28T07:42:49.305Z,27.27
2018-07-28T07:43:49.335Z,27.17
2018-07-28T07:44:49.364Z,27.27
2018-07-28T07:45:49.394Z,27.33
2018-07-28T07:46:49.438Z,27.33
2018-07-28T07:47:49.448Z,27.45
2018-07-28T07:48:49.478Z,27.55
2018-07-28T07:49:49.505Z,27.77
2018-07-28T07:50:49.533Z,27.42
2018-07-28T07:51:49.564Z,27.44
2018-07-28T07:52:49.590Z,27.58
2018-07-28T07:53:49.625Z,27.68
2018-07-28T07:54:49.649Z,27.78
2018-07-28T07:55:49.679Z,27.86
2018-07-28T07:56:49.705Z,27.73
2018-07-28T07:57:49.735Z,27.67
2018-07-28T07:58:49.763Z,27.80
2018-07-28T07:59:49.795Z,27.82
2018-07-28T08:00:49.820Z,27.83
2018-07-28T08:01:49.856Z,27.95
2018-07-28T08:02:49.878Z,27.95
2018-07-28T08:03:49.907Z,27.71
2018-07-28T08:04:49.947Z,27.58
2018-07-28T08:05:49.964Z,27.63
2018-07-28T08:06:49.997Z,27.52
2018-07-28T08:07:50.031Z,27.49
2018-07-28T08:08:50.054Z,27.42
2018-07-28T08:09:50.080Z,27.40
2018-07-28T08:10:50.109Z,27.45
2018-07-28T08:11:50.140Z,27.49
2018-07-28T08:12:50.169Z,27.65
2018-07-28T08:13:50.195Z,27.63
2018-07-28T08:14:50.227Z,27.35
2018-07-28T08:15:50.260Z,27.48
2018-07-28T08:16:50.285Z,27.58
2018-07-28T08:17:50.311Z,27.73
2018-07-28T08:18:50.342Z,27.86
2018-07-28T08:19:50.369Z,27.98
2018-07-28T08:20:50.411Z,28.00
2018-07-28T08:21:50.432Z,28.08
2018-07-28T08:22:50.462Z,28.07
2018-07-28T08:23:50.486Z,27.86
2018-07-28T08:24:50.512Z,27.80
2018-07-28T08:25:50.543Z,27.80
2018-07-28T08:26:50.681Z,27.90
2018-07-28T08:27:50.599Z,27.95
2018-07-28T08:28:50.631Z,27.77
2018-07-28T08:29:50.663Z,27.87
2018-07-28T08:30:50.686Z,27.87
2018-07-28T08:31:50.718Z,27.96
2018-07-28T08:32:50.743Z,28.02
2018-07-28T08:33:50.773Z,28.19
2018-07-28T08:34:50.801Z,28.15
2018-07-28T08:35:50.834Z,28.07
2018-07-28T08:36:50.864Z,27.98
2018-07-28T08:37:50.893Z,27.77
2018-07-28T08:38:50.921Z,27.83
2018-07-28T08:39:50.993Z,27.78
2018-07-28T08:40:50.978Z,27.80
2018-07-28T08:41:51.008Z,27.65
2018-07-28T08:42:51.037Z,27.70
2018-07-28T08:43:51.064Z,27.74
2018-07-28T08:44:51.094Z,27.75
2018-07-28T08:45:51.120Z,27.71
2018-07-28T08:46:51.151Z,27.74
2018-07-28T08:47:51.178Z,27.70
2018-07-28T08:48:51.264Z,27.78
2018-07-28T08:49:51.235Z,27.74
2018-07-28T08:50:51.265Z,27.58
2018-07-28T08:51:51.294Z,27.45
2018-07-28T08:52:51.322Z,27.30
2018-07-28T08:53:51.353Z,27.14
2018-07-28T08:54:51.379Z,27.07
2018-07-28T08:55:51.411Z,27.17
2018-07-28T08:56:51.436Z,27.21
2018-07-28T08:57:51.470Z,27.18
2018-07-28T08:58:51.493Z,27.26
2018-07-28T08:59:51.526Z,27.20
2018-07-28T09:00:51.550Z,27.17
2018-07-28T09:01:51.580Z,27.03
2018-07-28T09:02:51.610Z,27.08
2018-07-28T09:03:51.636Z,26.90
2018-07-28T09:04:51.667Z,26.95
2018-07-28T09:05:51.737Z,26.80
2018-07-28T09:06:51.721Z,26.73
2018-07-28T09:07:51.750Z,26.48
2018-07-28T09:08:51.779Z,26.31
2018-07-28T09:09:51.807Z,26.15
2018-07-28T09:10:51.836Z,26.15
2018-07-28T09:11:51.862Z,26.26
2018-07-28T09:12:51.890Z,26.33
2018-07-28T09:13:51.918Z,26.25
2018-07-28T09:14:51.945Z,26.22
2018-07-28T09:15:51.974Z,26.19
2018-07-28T09:16:52.004Z,26.13
2018-07-28T09:17:52.076Z,26.19
2018-07-28T09:18:52.061Z,26.18
2018-07-28T09:19:52.088Z,26.33
2018-07-28T09:20:52.114Z,26.40
2018-07-28T09:21:52.143Z,26.51
2018-07-28T09:22:52.173Z,26.58
2018-07-28T09:23:52.201Z,26.63
2018-07-28T09:24:52.223Z,26.66
2018-07-28T09:25:52.255Z,26.75
2018-07-28T09:26:52.284Z,26.81
2018-07-28T09:27:52.311Z,26.83
2018-07-28T09:28:52.336Z,26.90
2018-07-28T09:29:52.370Z,26.84
2018-07-28T09:30:52.395Z,26.96
2018-07-28T09:31:52.421Z,26.96
2018-07-28T09:32:52.451Z,27.00
2018-07-28T09:33:52.479Z,26.99
2018-07-28T09:34:52.507Z,27.02
2018-07-28T09:35:52.533Z,26.96
2018-07-28T09:36:52.599Z,26.95
2018-07-28T09:37:52.589Z,26.97
2018-07-28T09:38:52.617Z,26.93
2018-07-28T09:39:52.647Z,26.92
2018-07-28T09:40:52.724Z,26.88
2018-07-28T09:41:52.703Z,26.59
2018-07-28T09:42:52.732Z,26.59
2018-07-28T09:43:52.759Z,26.48
2018-07-28T09:44:52.787Z,26.48
2018-07-28T09:45:52.821Z,26.55
2018-07-28T09:46:52.896Z,26.51
2018-07-28T09:47:52.873Z,26.56
2018-07-28T09:48:52.897Z,26.56
2018-07-28T09:49:52.929Z,26.65
2018-07-28T09:50:52.956Z,26.71
2018-07-28T09:51:52.983Z,26.65
2018-07-28T09:52:53.010Z,26.66
2018-07-28T09:53:53.038Z,26.58
2018-07-28T09:54:53.066Z,26.60
2018-07-28T09:55:53.101Z,26.58
2018-07-28T09:56:53.127Z,26.48
2018-07-28T09:57:53.152Z,26.47
2018-07-28T09:58:53.184Z,26.38
2018-07-28T09:59:53.209Z,26.23
2018-07-28T10:00:53.236Z,26.40
2018-07-28T10:01:53.264Z,26.29
2018-07-28T10:02:53.290Z,26.23
2018-07-28T10:03:53.318Z,26.28
2018-07-28T10:04:53.348Z,26.18
2018-07-28T10:05:53.373Z,26.03
2018-07-28T10:06:53.401Z,25.98
2018-07-28T10:07:53.432Z,25.93
2018-07-28T10:08:53.458Z,25.96
2018-07-28T10:09:53.489Z,25.83
2018-07-28T10:10:53.513Z,25.73
2018-07-28T10:11:53.543Z,25.70
2018-07-28T10:12:53.574Z,25.66
2018-07-28T10:13:53.596Z,25.58
2018-07-28T10:14:53.627Z,25.38
2018-07-28T10:15:53.653Z,25.31
2018-07-28T10:16:53.678Z,25.36
2018-07-28T10:17:53.708Z,25.44
2018-07-28T10:18:53.733Z,25.40
2018-07-28T10:19:53.761Z,25.48
2018-07-28T10:20:53.792Z,25.58
2018-07-28T10:21:53.819Z,25.43
2018-07-28T10:22:53.864Z,25.43
2018-07-28T10:23:53.872Z,25.38
2018-07-28T10:24:53.900Z,25.28
2018-07-28T10:25:53.926Z,25.18
2018-07-28T10:26:53.957Z,25.14
2018-07-28T10:27:53.982Z,25.11
2018-07-28T10:28:54.008Z,25.08
2018-07-28T10:29:54.036Z,25.03
2018-07-28T10:30:54.066Z,24.81
2018-07-28T10:31:54.094Z,24.58
2018-07-28T10:32:54.119Z,24.45
2018-07-28T10:33:54.146Z,24.38
2018-07-28T10:34:54.175Z,24.30
2018-07-28T10:35:54.200Z,24.38
2018-07-28T10:36:54.233Z,24.36
2018-07-28T10:37:54.257Z,24.33
2018-07-28T10:38:54.284Z,24.42
2018-07-28T10:39:54.309Z,24.48
2018-07-28T10:40:54.337Z,24.57
2018-07-28T10:41:54.362Z,24.54
2018-07-28T10:42:54.391Z,24.53
2018-07-28T10:43:54.420Z,24.55
2018-07-28T10:44:54.445Z,24.57
2018-07-28T10:45:54.472Z,24.69
2018-07-28T10:46:54.500Z,24.58
2018-07-28T10:47:54.528Z,24.51
2018-07-28T10:48:54.550Z,24.43
2018-07-28T10:49:54.581Z,24.42
2018-07-28T10:50:54.608Z,24.53
2018-07-28T10:51:54.647Z,24.58
2018-07-28T10:52:54.658Z,24.77
2018-07-28T10:53:54.687Z,24.92
2018-07-28T10:54:54.714Z,25.04
2018-07-28T10:55:54.744Z,24.95
2018-07-28T10:56:54.772Z,24.98
2018-07-28T10:57:54.794Z,24.92
2018-07-28T10:58:54.825Z,24.99
2018-07-28T10:59:54.873Z,25.08
2018-07-28T11:00:54.876Z,25.08
2018-07-28T11:01:54.906Z,25.14
2018-07-28T11:02:54.933Z,25.08
2018-07-28T11:03:54.961Z,25.10
2018-07-28T11:04:54.990Z,24.98
2018-07-28T11:05:55.016Z,24.96
2018-07-28T11:06:55.040Z,25.18
2018-07-28T11:07:55.071Z,25.25
2018-07-28T11:08:55.099Z,25.29
2018-07-28T11:09:55.123Z,25.44
2018-07-28T11:10:55.148Z,25.58
2018-07-28T11:11:55.180Z,25.65
2018-07-28T11:12:55.206Z,25.80
2018-07-28T11:13:55.231Z,25.83
2018-07-28T11:14:55.262Z,25.68
2018-07-28T11:15:55.286Z,25.70
2018-07-28T11:16:55.313Z,25.85
2018-07-28T11:17:55.346Z,25.88
2018-07-28T11:18:55.415Z,25.91
2018-07-28T11:19:55.397Z,26.07
2018-07-28T11:20:55.427Z,26.19
2018-07-28T11:21:55.453Z,26.41
2018-07-28T11:22:55.486Z,26.48
2018-07-28T11:23:55.509Z,26.66
2018-07-28T11:24:55.535Z,26.60
2018-07-28T11:25:55.572Z,26.55
2018-07-28T11:26:55.596Z,26.60
2018-07-28T11:27:55.622Z,26.65
2018-07-28T11:28:55.649Z,26.63
2018-07-28T11:29:55.676Z,26.71
2018-07-28T11:30:55.703Z,26.71
2018-07-28T11:31:55.789Z,26.59
2018-07-28T11:32:55.760Z,26.80
2018-07-28T11:33:55.790Z,26.97
2018-07-28T11:34:55.819Z,26.77
2018-07-28T11:35:55.845Z,26.81
2018-07-28T11:36:55.873Z,26.84
2018-07-28T11:37:55.956Z,26.73
2018-07-28T11:38:55.929Z,26.53
2018-07-28T11:39:55.958Z,26.33
2018-07-28T11:40:55.988Z,26.28
2018-07-28T11:41:56.014Z,26.48
2018-07-28T11:42:56.043Z,26.56
2018-07-28T11:43:56.074Z,26.63
2018-07-28T11:44:56.099Z,26.77
2018-07-28T11:45:56.198Z,26.70
2018-07-28T11:46:56.162Z,26.70
2018-07-28T11:47:56.185Z,26.71
2018-07-28T11:48:56.214Z,26.74
2018-07-28T11:49:56.241Z,26.96
2018-07-28T11:50:56.275Z,26.95
2018-07-28T11:51:56.298Z,26.93
2018-07-28T11:52:56.326Z,26.81
2018-07-28T11:53:56.356Z,26.74
2018-07-28T11:54:56.383Z,26.73
2018-07-28T11:55:56.412Z,26.92
2018-07-28T11:56:56.442Z,27.07
2018-07-28T11:57:56.509Z,27.36
2018-07-28T11:58:56.497Z,27.60
2018-07-28T11:59:56.536Z,27.65
2018-07-28T12:00:56.556Z,27.80
2018-07-28T12:01:56.582Z,27.85
2018-07-28T12:02:56.613Z,27.73
2018-07-28T12:03:56.639Z,27.65
2018-07-28T12:04:56.671Z,27.63
2018-07-28T12:05:56.699Z,27.60
2018-07-28T12:06:56.728Z,27.44
2018-07-28T12:07:56.754Z,27.42
2018-07-28T12:08:56.785Z,27.55
2018-07-28T12:09:56.811Z,27.68
2018-07-28T12:10:56.841Z,27.54
2018-07-28T12:11:56.872Z,27.49
2018-07-28T12:12:56.897Z,27.58
2018-07-28T12:13:56.929Z,27.55
2018-07-28T12:14:56.957Z,27.48
2018-07-28T12:15:56.987Z,27.35
2018-07-28T12:16:57.013Z,27.32
2018-07-28T12:17:57.041Z,27.52
2018-07-28T12:18:57.072Z,27.36
2018-07-28T12:19:57.101Z,27.17
2018-07-28T12:20:57.126Z,27.21
2018-07-28T12:21:57.156Z,27.35
2018-07-28T12:22:57.188Z,27.51
2018-07-28T12:23:57.220Z,27.60
2018-07-28T12:24:57.240Z,27.52
2018-07-28T12:25:57.275Z,27.85
2018-07-28T12:26:57.300Z,28.14
2018-07-28T12:27:57.328Z,28.12
2018-07-28T12:28:57.356Z,28.12
2018-07-28T12:29:57.385Z,28.04
2018-07-28T12:30:57.412Z,27.89
2018-07-28T12:31:57.446Z,27.82
2018-07-28T12:32:57.472Z,27.73
2018-07-28T12:33:57.501Z,27.71
2018-07-28T12:34:57.625Z,27.73
2018-07-28T12:35:57.562Z,27.59
2018-07-28T12:36:57.587Z,27.52
2018-07-28T12:37:57.615Z,27.58
2018-07-28T12:38:57.645Z,27.58
2018-07-28T12:39:57.672Z,27.54
2018-07-28T12:40:57.753Z,27.58
2018-07-28T12:41:57.730Z,27.60
2018-07-28T12:42:57.756Z,27.80
2018-07-28T12:43:57.785Z,27.75
2018-07-28T12:44:57.818Z,27.80
2018-07-28T12:45:57.845Z,27.77
2018-07-28T12:46:57.870Z,27.77
2018-07-28T12:47:57.901Z,27.83
2018-07-28T12:48:57.928Z,27.83
2018-07-28T12:49:57.958Z,27.80
2018-07-28T12:50:57.984Z,27.90
2018-07-28T12:51:58.012Z,28.04
2018-07-28T12:52:58.042Z,28.15